createdAt,value
2023-02-27T00:05:27.361Z,79.98
2023-02-27T00:08:23.674Z,80.48
2023-02-27T00:12:04.051Z,79.38
2023-02-27T00:18:45.848Z,79.68
2023-02-27T00:21:56.959Z,80.13
2023-02-27T00:25:00.319Z,80.41
2023-02-27T00:28:16.242Z,78.85
2023-02-27T00:31:30.865Z,80.41
2023-02-27T00:34:46.612Z,81.44
2023-02-27T00:38:01.199Z,82.69
2023-02-27T00:41:41.458Z,82.68
2023-02-27T00:44:41.217Z,81.94
2023-02-27T00:47:29.006Z,82.71
2023-02-27T00:50:33.111Z,84.18
2023-02-27T00:53:27.621Z,84.37
2023-02-27T00:56:10.916Z,84.47
2023-02-27T00:58:54.015Z,83.71
2023-02-27T01:02:02.536Z,82.40
2023-02-27T01:05:01.337Z,81.99
2023-02-27T01:08:07.811Z,80.83
2023-02-27T01:11:24.596Z,80.89
2023-02-27T01:14:26.501Z,81.04
2023-02-27T01:17:30.346Z,82.43
2023-02-27T01:20:25.830Z,83.69
2023-02-27T01:23:02.680Z,85.22
2023-02-27T01:26:39.178Z,85.69
2023-02-27T01:29:32.479Z,86.50
2023-02-27T01:32:34.018Z,85.00
2023-02-27T01:35:31.120Z,85.37
2023-02-27T01:38:47.184Z,84.11
2023-02-27T01:42:28.142Z,83.43
2023-02-27T01:45:53.229Z,82.49
2023-02-27T01:49:28.315Z,82.44
2023-02-27T01:52:32.459Z,82.13
2023-02-27T02:00:30.650Z,82.08
2023-02-27T02:11:32.607Z,82.12
2023-02-27T02:32:40.956Z,84.34
2023-02-27T02:36:36.215Z,85.44
2023-02-27T02:44:58.948Z,86.09
2023-02-27T02:48:32.323Z,84.59
2023-02-27T02:56:06.380Z,82.26
2023-02-27T03:00:02.619Z,82.87
2023-02-27T03:12:21.772Z,81.56
2023-02-27T03:24:19.572Z,82.01
2023-02-27T03:30:38.254Z,82.34
2023-02-27T03:33:15.004Z,82.57
2023-02-27T03:36:01.013Z,81.20
2023-02-27T03:38:44.201Z,81.27
2023-02-27T03:41:28.783Z,81.61
2023-02-27T03:44:20.505Z,81.68
2023-02-27T03:47:27.568Z,81.79
2023-02-27T03:50:10.684Z,82.17
2023-02-27T03:52:50.713Z,82.35
2023-02-27T03:55:39.732Z,81.60
2023-02-27T03:59:23.173Z,81.18
2023-02-27T04:02:07.084Z,82.73
2023-02-27T04:04:43.672Z,81.94
2023-02-27T04:07:43.974Z,81.73
2023-02-27T04:10:30.096Z,81.62
2023-02-27T04:13:28.220Z,81.05
2023-02-27T04:16:23.552Z,82.40
2023-02-27T04:19:21.779Z,83.04
2023-02-27T04:22:15.281Z,83.66
2023-02-27T04:25:15.270Z,83.11
2023-02-27T04:28:10.346Z,83.40
2023-02-27T04:31:03.076Z,83.92
2023-02-27T04:34:07.907Z,83.83
2023-02-27T04:37:10.088Z,83.42
2023-02-27T04:40:25.642Z,82.88
2023-02-27T04:46:45.445Z,82.26
2023-02-27T04:49:52.516Z,81.72
2023-02-27T04:52:52.564Z,82.11
2023-02-27T04:55:50.813Z,82.44
2023-02-27T04:58:50.773Z,82.06
2023-02-27T05:02:11.618Z,82.62
2023-02-27T05:08:20.551Z,82.65
2023-02-27T05:14:45.064Z,83.38
2023-02-27T05:18:09.695Z,82.73
2023-02-27T05:21:26.706Z,82.84
2023-02-27T05:25:04.511Z,82.96
2023-02-27T05:28:14.620Z,83.94
2023-02-27T05:31:44.324Z,83.03
2023-02-27T05:35:23.607Z,82.93
2023-02-27T05:39:32.754Z,83.49
2023-02-27T05:45:51.481Z,83.71
2023-02-27T05:49:36.905Z,83.55
2023-02-27T05:56:50.784Z,84.42
2023-02-27T06:32:47.328Z,79.77
2023-02-27T07:50:52.265Z,84.91
2023-02-27T08:00:50.248Z,84.63
2023-02-27T08:03:20.601Z,85.86
2023-02-27T08:05:57.540Z,84.74
2023-02-27T08:08:36.015Z,84.77
2023-02-27T08:11:31.383Z,84.89
2023-02-27T08:14:36.128Z,85.13
2023-02-27T08:18:03.385Z,84.41
2023-02-27T08:29:29.803Z,85.65
2023-02-27T08:36:14.409Z,85.63
2023-02-27T08:39:27.293Z,85.60
2023-02-27T08:42:28.027Z,85.79
2023-02-27T08:45:29.554Z,85.72
2023-02-27T08:48:26.428Z,86.11
2023-02-27T08:51:09.614Z,85.63
2023-02-27T08:53:39.282Z,85.57
2023-02-27T08:56:09.660Z,85.24
2023-02-27T08:58:39.536Z,85.21
2023-02-27T09:01:11.786Z,84.46
2023-02-27T09:03:41.497Z,84.40
2023-02-27T09:06:11.390Z,84.45
2023-02-27T09:08:41.161Z,83.89
2023-02-27T09:11:10.754Z,84.01
2023-02-27T09:13:40.364Z,84.19
2023-02-27T09:16:13.676Z,84.50
2023-02-27T09:18:43.373Z,85.09
2023-02-27T09:21:13.150Z,85.15
2023-02-27T09:23:43.028Z,85.28
2023-02-27T09:26:12.835Z,85.16
2023-02-27T09:28:42.712Z,84.14
2023-02-27T09:31:15.074Z,84.02
2023-02-27T09:33:44.714Z,83.42
2023-02-27T09:36:14.405Z,83.39
2023-02-27T09:38:44.123Z,82.82
2023-02-27T09:41:33.487Z,83.07
2023-02-27T09:44:04.565Z,83.43
2023-02-27T09:46:36.839Z,83.00
2023-02-27T09:49:07.157Z,83.36
2023-02-27T09:51:36.800Z,83.51
2023-02-27T09:54:07.851Z,83.27
2023-02-27T09:56:44.879Z,83.08
2023-02-27T09:59:20.503Z,82.95
2023-02-27T10:01:57.994Z,82.61
2023-02-27T10:04:35.131Z,83.11
2023-02-27T10:07:16.692Z,82.83
2023-02-27T10:09:55.085Z,82.78
2023-02-27T10:12:44.554Z,82.74
2023-02-27T10:15:20.831Z,82.74
2023-02-27T10:17:56.077Z,82.28
2023-02-27T10:20:29.993Z,82.57
2023-02-27T10:23:03.176Z,82.40
2023-02-27T10:25:37.369Z,82.10
2023-02-27T10:28:15.592Z,82.11
2023-02-27T10:30:49.836Z,82.08
2023-02-27T10:33:28.231Z,81.64
2023-02-27T10:35:58.157Z,81.62
2023-02-27T10:38:35.247Z,81.15
2023-02-27T10:41:06.577Z,81.43
2023-02-27T10:43:36.388Z,81.89
2023-02-27T10:46:14.461Z,81.80
2023-02-27T10:48:47.412Z,81.46
2023-02-27T10:51:27.442Z,81.02
2023-02-27T10:54:18.436Z,81.45
2023-02-27T10:56:52.301Z,81.82
2023-02-27T10:59:25.179Z,80.97
2023-02-27T11:01:57.827Z,81.61
2023-02-27T11:04:33.951Z,80.69
2023-02-27T11:07:05.618Z,81.10
2023-02-27T11:09:37.291Z,80.30
2023-02-27T11:12:15.880Z,79.44
2023-02-27T11:14:56.524Z,78.33
2023-02-27T11:17:30.153Z,77.73
2023-02-27T11:20:06.148Z,77.35
2023-02-27T11:22:36.296Z,76.88
2023-02-27T11:25:24.769Z,76.13
2023-02-27T11:27:54.744Z,77.46
2023-02-27T11:30:29.524Z,76.48
2023-02-27T11:33:02.393Z,76.65
2023-02-27T11:35:39.372Z,75.93
2023-02-27T11:38:11.397Z,75.67
2023-02-27T11:40:51.368Z,74.01
2023-02-27T11:43:23.607Z,74.88
2023-02-27T11:46:18.423Z,74.62
2023-02-27T11:48:50.873Z,73.74
2023-02-27T11:51:35.464Z,72.49
2023-02-27T11:54:13.095Z,71.26
2023-02-27T11:56:46.776Z,72.09
2023-02-27T11:59:28.907Z,71.67
2023-02-27T12:02:07.484Z,70.48
2023-02-27T12:04:47.396Z,71.76
2023-02-27T12:07:24.666Z,70.52
2023-02-27T12:10:02.914Z,70.43
2023-02-27T12:12:39.015Z,69.93
2023-02-27T12:15:20.710Z,69.02
2023-02-27T12:17:54.935Z,68.95
2023-02-27T12:20:29.664Z,70.50
2023-02-27T12:23:06.970Z,70.38
2023-02-27T12:25:42.356Z,67.39
2023-02-27T12:28:24.195Z,67.41
2023-02-27T12:31:07.304Z,67.82
2023-02-27T12:33:44.766Z,67.97
2023-02-27T12:36:17.349Z,69.18
2023-02-27T12:38:49.759Z,69.64
2023-02-27T12:41:38.035Z,68.97
2023-02-27T12:44:25.163Z,69.38
2023-02-27T12:47:01.811Z,69.47
2023-02-27T12:49:41.134Z,69.76
2023-02-27T12:52:25.868Z,69.69
2023-02-27T12:55:09.017Z,68.66
2023-02-27T12:58:23.561Z,68.31
2023-02-27T13:00:59.844Z,69.07
2023-02-27T13:03:35.793Z,68.84
2023-02-27T13:06:12.774Z,68.07
2023-02-27T13:09:08.652Z,67.54
2023-02-27T13:11:54.990Z,67.69
2023-02-27T13:14:36.367Z,67.85
2023-02-27T13:17:08.493Z,67.56
2023-02-27T13:19:44.772Z,66.74
2023-02-27T13:22:20.715Z,64.80
2023-02-27T13:24:54.088Z,64.75
2023-02-27T13:27:29.638Z,66.14
2023-02-27T13:30:14.200Z,65.55
2023-02-27T13:32:52.102Z,66.34
2023-02-27T13:35:31.959Z,64.42
2023-02-27T13:38:05.407Z,65.23
2023-02-27T13:40:40.642Z,65.43
2023-02-27T13:43:51.062Z,64.86
2023-02-27T13:46:26.726Z,64.91
2023-02-27T13:48:57.317Z,63.23
2023-02-27T13:51:59.797Z,63.34
2023-02-27T13:54:36.797Z,63.22
2023-02-27T13:57:22.561Z,63.13
2023-02-27T14:00:00.984Z,62.54
2023-02-27T14:02:57.757Z,62.46
2023-02-27T14:05:33.745Z,62.00
2023-02-27T14:08:11.292Z,61.58
2023-02-27T14:10:49.339Z,62.01
2023-02-27T14:13:49.321Z,62.03
2023-02-27T14:16:48.888Z,61.24
2023-02-27T14:19:51.983Z,61.01
2023-02-27T14:23:03.356Z,59.72
2023-02-27T14:25:43.147Z,60.38
2023-02-27T14:28:23.923Z,58.86
2023-02-27T14:30:57.479Z,59.50
2023-02-27T14:33:39.974Z,58.44
2023-02-27T14:36:17.947Z,59.13
2023-02-27T14:38:48.256Z,58.41
2023-02-27T14:41:34.458Z,58.57
2023-02-27T14:44:04.537Z,59.25
2023-02-27T14:46:38.094Z,59.58
2023-02-27T14:49:10.299Z,60.01
2023-02-27T14:51:40.616Z,59.97
2023-02-27T14:54:17.563Z,58.44
2023-02-27T14:56:59.611Z,60.21
2023-02-27T14:59:31.072Z,60.49
2023-02-27T15:02:04.439Z,61.24
2023-02-27T15:04:35.778Z,59.81
2023-02-27T15:07:05.904Z,60.10
2023-02-27T15:09:42.882Z,60.68
2023-02-27T15:12:20.988Z,61.02
2023-02-27T15:14:55.055Z,60.18
2023-02-27T15:17:26.853Z,61.04
2023-02-27T15:19:58.898Z,59.81
2023-02-27T15:22:38.868Z,59.10
2023-02-27T15:25:10.473Z,56.79
2023-02-27T15:27:44.891Z,57.36
2023-02-27T15:30:23.665Z,58.35
2023-02-27T15:32:55.807Z,58.13
2023-02-27T15:35:29.577Z,58.92
2023-02-27T15:38:02.813Z,59.36
2023-02-27T15:40:39.267Z,59.90
2023-02-27T15:43:12.515Z,59.59
2023-02-27T15:45:42.860Z,59.07
2023-02-27T15:48:16.781Z,59.49
2023-02-27T15:50:56.672Z,59.89
2023-02-27T15:53:33.980Z,60.29
2023-02-27T15:56:07.560Z,60.70
2023-02-27T15:58:46.866Z,61.38
2023-02-27T16:01:21.898Z,61.55
2023-02-27T16:03:54.065Z,61.54
2023-02-27T16:06:27.662Z,62.10
2023-02-27T16:09:00.828Z,62.12
2023-02-27T16:11:33.735Z,62.62
2023-02-27T16:14:08.583Z,62.74
2023-02-27T16:16:40.157Z,62.94
2023-02-27T16:19:26.991Z,63.24
2023-02-27T16:22:07.269Z,63.26
2023-02-27T16:24:36.915Z,63.26
2023-02-27T16:27:06.946Z,63.54
2023-02-27T16:29:45.327Z,64.19
2023-02-27T16:32:25.590Z,63.73
2023-02-27T16:35:03.669Z,64.34
2023-02-27T16:37:39.700Z,64.49
2023-02-27T16:40:17.489Z,61.99
2023-02-27T16:42:48.283Z,63.56
2023-02-27T16:45:22.921Z,64.86
2023-02-27T16:47:54.673Z,65.37
2023-02-27T16:50:27.167Z,66.11
2023-02-27T16:52:57.513Z,66.33
2023-02-27T16:55:27.961Z,66.54
2023-02-27T16:57:57.587Z,66.56
2023-02-27T17:00:29.907Z,66.35
2023-02-27T17:02:59.735Z,66.61
2023-02-27T17:05:29.340Z,66.39
2023-02-27T17:07:59.398Z,66.67
2023-02-27T17:10:29.677Z,67.05
2023-02-27T17:12:59.332Z,67.51
2023-02-27T17:15:31.565Z,67.27
2023-02-27T17:18:01.199Z,67.33
2023-02-27T17:20:30.966Z,67.46
2023-02-27T17:23:00.672Z,67.88
2023-02-27T17:25:30.521Z,68.12
2023-02-27T17:28:00.147Z,68.44
2023-02-27T17:30:32.577Z,67.74
2023-02-27T17:33:04.167Z,68.26
2023-02-27T17:35:33.993Z,68.38
2023-02-27T17:38:04.171Z,68.84
2023-02-27T17:40:34.768Z,68.85
2023-02-27T17:43:04.400Z,68.77
2023-02-27T17:45:36.854Z,69.49
2023-02-27T17:48:06.585Z,70.15
2023-02-27T17:50:36.341Z,69.96
2023-02-27T17:53:06.101Z,69.77
2023-02-27T17:55:35.777Z,70.22
2023-02-27T17:58:05.513Z,70.43
2023-02-27T18:00:38.004Z,70.26
2023-02-27T18:03:08.108Z,70.59
2023-02-27T18:05:37.735Z,69.83
2023-02-27T18:08:07.455Z,69.54
2023-02-27T18:10:37.252Z,69.06
2023-02-27T18:13:06.904Z,69.12
2023-02-27T18:15:39.132Z,69.16
2023-02-27T18:18:08.811Z,68.82
2023-02-27T18:20:39.834Z,68.78
2023-02-27T18:23:09.639Z,68.96
2023-02-27T18:25:40.013Z,68.84
2023-02-27T18:28:11.045Z,69.39
2023-02-27T18:30:43.311Z,69.22
2023-02-27T18:33:12.975Z,69.56
2023-02-27T18:35:42.686Z,69.58
2023-02-27T18:38:12.305Z,69.45
2023-02-27T18:40:42.807Z,69.60
2023-02-27T18:43:14.244Z,69.28
2023-02-27T18:45:46.721Z,68.99
2023-02-27T18:48:16.838Z,69.56
2023-02-27T18:50:46.725Z,69.79
2023-02-27T18:53:18.485Z,69.90
2023-02-27T18:55:48.335Z,70.19
2023-02-27T18:58:18.096Z,70.11
2023-02-27T19:00:50.537Z,70.29
2023-02-27T19:03:20.499Z,70.62
2023-02-27T19:05:50.333Z,70.26
2023-02-27T19:08:20.873Z,70.67
2023-02-27T19:10:51.407Z,71.12
2023-02-27T19:13:21.248Z,71.78
2023-02-27T19:15:54.128Z,71.80
2023-02-27T19:18:24.019Z,71.53
2023-02-27T19:20:54.853Z,71.66
2023-02-27T19:23:25.143Z,72.06
2023-02-27T19:26:01.012Z,71.42
2023-02-27T19:28:30.917Z,71.96
2023-02-27T19:31:08.869Z,72.97
2023-02-27T19:33:39.010Z,73.23
2023-02-27T19:36:11.672Z,73.34
2023-02-27T19:38:41.550Z,73.28
2023-02-27T19:41:13.647Z,73.07
2023-02-27T19:43:44.132Z,72.76
2023-02-27T19:46:18.600Z,73.02
2023-02-27T19:48:48.593Z,72.62
2023-02-27T19:51:19.496Z,73.22
2023-02-27T19:53:51.039Z,74.01
2023-02-27T19:56:24.491Z,74.91
2023-02-27T19:58:55.019Z,74.35
2023-02-27T20:01:31.046Z,74.73
2023-02-27T20:04:01.899Z,74.47
2023-02-27T20:06:33.223Z,74.52
2023-02-27T20:09:03.421Z,73.81
2023-02-27T20:11:33.658Z,74.64
2023-02-27T20:14:04.382Z,74.56
2023-02-27T20:16:37.588Z,74.56
2023-02-27T20:19:08.190Z,74.96
2023-02-27T20:21:37.929Z,75.44
2023-02-27T20:24:12.316Z,75.33
2023-02-27T20:26:44.209Z,77.63
2023-02-27T20:29:16.387Z,77.64
2023-02-27T20:31:50.259Z,78.51
2023-02-27T20:34:22.965Z,77.38
2023-02-27T20:36:53.727Z,77.04
2023-02-27T20:39:24.177Z,77.36
2023-02-27T20:41:54.108Z,77.85
2023-02-27T20:44:23.962Z,77.47
2023-02-27T20:46:56.246Z,77.26
2023-02-27T20:49:26.116Z,76.84
2023-02-27T20:51:55.875Z,76.35
2023-02-27T20:54:25.620Z,76.60
2023-02-27T20:56:55.634Z,76.25
2023-02-27T20:59:26.332Z,76.69
2023-02-27T21:01:59.714Z,75.96
2023-02-27T21:04:42.490Z,76.54
2023-02-27T21:07:13.691Z,76.66
2023-02-27T21:09:43.607Z,76.90
2023-02-27T21:12:13.932Z,76.58
2023-02-27T21:14:44.603Z,76.86
2023-02-27T21:17:17.049Z,76.66
2023-02-27T21:19:46.852Z,78.02
2023-02-27T21:22:17.174Z,77.57
2023-02-27T21:24:47.403Z,77.74
2023-02-27T21:27:19.819Z,78.37
2023-02-27T21:29:49.981Z,79.05
2023-02-27T21:32:22.600Z,78.05
2023-02-27T21:34:52.325Z,77.89
2023-02-27T21:37:22.088Z,77.41
2023-02-27T21:39:55.234Z,77.61
2023-02-27T21:42:24.939Z,77.49
2023-02-27T21:44:54.635Z,77.46
2023-02-27T21:47:26.918Z,77.95
2023-02-27T21:49:56.560Z,78.76
2023-02-27T21:52:26.261Z,78.75
2023-02-27T21:54:56.499Z,78.79
2023-02-27T21:57:26.330Z,78.84
2023-02-27T21:59:55.956Z,80.25
2023-02-27T22:02:28.376Z,81.39
2023-02-27T22:04:58.045Z,82.26
2023-02-27T22:07:27.748Z,82.37
2023-02-27T22:09:57.764Z,82.53
2023-02-27T22:12:27.493Z,82.11
2023-02-27T22:14:57.354Z,81.84
2023-02-27T22:17:29.690Z,82.24
2023-02-27T22:19:59.390Z,82.40
2023-02-27T22:22:29.084Z,82.59
2023-02-27T22:24:58.767Z,82.13
2023-02-27T22:27:28.411Z,82.34
2023-02-27T22:29:58.112Z,81.98
2023-02-27T22:32:30.395Z,81.40
2023-02-27T22:35:01.430Z,81.22
2023-02-27T22:37:32.253Z,81.28
2023-02-27T22:40:02.033Z,81.23
2023-02-27T22:42:31.634Z,81.09
2023-02-27T22:45:01.266Z,80.42
2023-02-27T22:47:33.495Z,81.46
2023-02-27T22:50:04.207Z,81.64
2023-02-27T22:52:33.804Z,80.92
2023-02-27T22:55:03.517Z,79.90
2023-02-27T22:57:33.185Z,80.13
2023-02-27T23:00:05.869Z,80.17
2023-02-27T23:02:42.328Z,79.73
2023-02-27T23:05:13.738Z,80.04
2023-02-27T23:07:43.763Z,79.63
2023-02-27T23:10:14.652Z,79.06
2023-02-27T23:12:44.326Z,79.28
2023-02-27T23:15:14.681Z,78.68
2023-02-27T23:17:57.854Z,78.46
2023-02-27T23:20:27.892Z,78.50
2023-02-27T23:22:57.559Z,79.33
2023-02-27T23:25:27.245Z,78.94
2023-02-27T23:27:56.882Z,79.34
2023-02-27T23:30:26.692Z,79.39
2023-02-27T23:32:59.465Z,78.88
2023-02-27T23:35:29.956Z,79.23
2023-02-27T23:38:01.204Z,79.65
2023-02-27T23:40:31.495Z,79.88
2023-02-27T23:43:01.142Z,80.07
2023-02-27T23:45:30.905Z,80.14
2023-02-27T23:48:04.746Z,80.56
2023-02-27T23:50:36.547Z,81.20
2023-02-27T23:53:07.436Z,81.47
2023-02-27T23:55:38.724Z,81.40
2023-02-27T23:58:10.390Z,80.39
